sensor_id;sensor_type;location;lat;lon;timestamp;temperature;humidity
4695;DHT22;2361;49.540;8.390;2023-02-03T00:01:54;8.90;99.90
4695;DHT22;2361;49.540;8.390;2023-02-03T00:04:21;9.00;99.90
4695;DHT22;2361;49.540;8.390;2023-02-03T00:06:48;9.00;99.90
4695;DHT22;2361;49.540;8.390;2023-02-03T00:09:16;9.00;99.90
4695;DHT22;2361;49.540;8.390;2023-02-03T00:11:44;9.00;99.90
4695;DHT22;2361;49.540;8.390;2023-02-03T00:14:11;9.00;99.90
4695;DHT22;2361;49.540;8.390;2023-02-03T00:16:38;9.00;99.90
4695;DHT22;2361;49.540;8.390;2023-02-03T00:19:05;9.00;99.90
4695;DHT22;2361;49.540;8.390;2023-02-03T00:21:31;9.00;99.90
4695;DHT22;2361;49.540;8.390;2023-02-03T00:23:58;9.00;99.90
4695;DHT22;2361;49.540;8.390;2023-02-03T00:26:25;9.00;99.90
4695;DHT22;2361;49.540;8.390;2023-02-03T00:28:54;9.10;99.90
4695;DHT22;2361;49.540;8.390;2023-02-03T00:31:23;9.10;99.90
4695;DHT22;2361;49.540;8.390;2023-02-03T00:33:55;9.10;99.90
4695;DHT22;2361;49.540;8.390;2023-02-03T00:36:23;9.10;99.90
4695;DHT22;2361;49.540;8.390;2023-02-03T00:38:51;9.10;99.90
4695;DHT22;2361;49.540;8.390;2023-02-03T00:41:19;9.00;99.90
4695;DHT22;2361;49.540;8.390;2023-02-03T00:43:47;9.10;99.90
4695;DHT22;2361;49.540;8.390;2023-02-03T00:46:15;9.10;99.90
4695;DHT22;2361;49.540;8.390;2023-02-03T00:48:42;9.00;99.90
4695;DHT22;2361;49.540;8.390;2023-02-03T00:51:09;9.00;99.90
4695;DHT22;2361;49.540;8.390;2023-02-03T00:53:37;9.00;99.90
4695;DHT22;2361;49.540;8.390;2023-02-03T00:56:04;9.00;99.90
4695;DHT22;2361;49.540;8.390;2023-02-03T00:58:39;9.00;99.90
4695;DHT22;2361;49.540;8.390;2023-02-03T01:01:06;9.00;99.90
4695;DHT22;2361;49.540;8.390;2023-02-03T01:03:34;9.00;99.90
4695;DHT22;2361;49.540;8.390;2023-02-03T01:06:14;9.00;99.90
4695;DHT22;2361;49.540;8.390;2023-02-03T01:08:43;9.00;99.90
4695;DHT22;2361;49.540;8.390;2023-02-03T01:11:13;9.10;99.90
4695;DHT22;2361;49.540;8.390;2023-02-03T01:13:43;9.10;99.90
4695;DHT22;2361;49.540;8.390;2023-02-03T01:16:12;9.20;99.90
4695;DHT22;2361;49.540;8.390;2023-02-03T01:18:40;9.20;99.90
4695;DHT22;2361;49.540;8.390;2023-02-03T01:21:11;9.20;99.90
4695;DHT22;2361;49.540;8.390;2023-02-03T01:23:40;9.20;99.90
4695;DHT22;2361;49.540;8.390;2023-02-03T01:26:10;9.10;99.90
4695;DHT22;2361;49.540;8.390;2023-02-03T01:28:39;9.10;99.90
4695;DHT22;2361;49.540;8.390;2023-02-03T01:31:12;9.10;99.90
4695;DHT22;2361;49.540;8.390;2023-02-03T01:33:41;9.10;99.90
4695;DHT22;2361;49.540;8.390;2023-02-03T01:36:12;9.10;99.90
4695;DHT22;2361;49.540;8.390;2023-02-03T01:38:40;9.20;99.90
4695;DHT22;2361;49.540;8.390;2023-02-03T01:41:11;9.10;99.90
4695;DHT22;2361;49.540;8.390;2023-02-03T01:43:51;9.20;99.90
4695;DHT22;2361;49.540;8.390;2023-02-03T01:46:36;9.20;99.90
4695;DHT22;2361;49.540;8.390;2023-02-03T01:49:10;9.20;99.90
4695;DHT22;2361;49.540;8.390;2023-02-03T01:51:42;9.20;99.90
4695;DHT22;2361;49.540;8.390;2023-02-03T01:54:14;9.20;99.90
4695;DHT22;2361;49.540;8.390;2023-02-03T01:56:55;9.20;99.90
4695;DHT22;2361;49.540;8.390;2023-02-03T01:59:27;9.20;99.90
4695;DHT22;2361;49.540;8.390;2023-02-03T02:01:56;9.20;99.90
4695;DHT22;2361;49.540;8.390;2023-02-03T02:04:30;9.20;99.90
4695;DHT22;2361;49.540;8.390;2023-02-03T02:07:03;9.20;99.90
4695;DHT22;2361;49.540;8.390;2023-02-03T02:09:30;9.20;99.90
4695;DHT22;2361;49.540;8.390;2023-02-03T02:11:57;9.20;99.90
4695;DHT22;2361;49.540;8.390;2023-02-03T02:14:24;9.20;99.90
4695;DHT22;2361;49.540;8.390;2023-02-03T02:23:10;9.30;99.90
4695;DHT22;2361;49.540;8.390;2023-02-03T02:29:18;9.20;99.90
4695;DHT22;2361;49.540;8.390;2023-02-03T02:38:24;9.20;99.90
4695;DHT22;2361;49.540;8.390;2023-02-03T02:44:24;9.20;99.90
4695;DHT22;2361;49.540;8.390;2023-02-03T02:46:58;9.20;99.90
4695;DHT22;2361;49.540;8.390;2023-02-03T02:49:41;9.30;99.90
4695;DHT22;2361;49.540;8.390;2023-02-03T02:52:10;9.30;99.90
4695;DHT22;2361;49.540;8.390;2023-02-03T02:54:40;9.30;99.90
4695;DHT22;2361;49.540;8.390;2023-02-03T02:57:12;9.30;99.90
4695;DHT22;2361;49.540;8.390;2023-02-03T02:59:40;9.30;99.90
4695;DHT22;2361;49.540;8.390;2023-02-03T03:02:09;9.20;99.90
4695;DHT22;2361;49.540;8.390;2023-02-03T03:04:37;9.20;99.90
4695;DHT22;2361;49.540;8.390;2023-02-03T03:07:17;9.20;99.90
4695;DHT22;2361;49.540;8.390;2023-02-03T03:09:50;9.20;99.90
4695;DHT22;2361;49.540;8.390;2023-02-03T03:12:23;9.20;99.90
4695;DHT22;2361;49.540;8.390;2023-02-03T03:15:03;9.20;99.90
4695;DHT22;2361;49.540;8.390;2023-02-03T03:17:38;9.30;99.90
4695;DHT22;2361;49.540;8.390;2023-02-03T03:20:12;9.30;99.90
4695;DHT22;2361;49.540;8.390;2023-02-03T03:22:47;9.30;99.90
4695;DHT22;2361;49.540;8.390;2023-02-03T03:25:19;9.40;99.90
4695;DHT22;2361;49.540;8.390;2023-02-03T03:27:55;9.40;99.90
4695;DHT22;2361;49.540;8.390;2023-02-03T03:30:35;9.40;99.90
4695;DHT22;2361;49.540;8.390;2023-02-03T03:33:03;9.40;99.90
4695;DHT22;2361;49.540;8.390;2023-02-03T03:35:40;9.40;99.90
4695;DHT22;2361;49.540;8.390;2023-02-03T03:38:20;9.40;99.90
4695;DHT22;2361;49.540;8.390;2023-02-03T03:40:58;9.40;99.90
4695;DHT22;2361;49.540;8.390;2023-02-03T03:43:31;9.40;99.90
4695;DHT22;2361;49.540;8.390;2023-02-03T03:46:11;9.40;99.90
4695;DHT22;2361;49.540;8.390;2023-02-03T03:48:53;9.40;99.90
4695;DHT22;2361;49.540;8.390;2023-02-03T03:54:15;9.40;99.90
4695;DHT22;2361;49.540;8.390;2023-02-03T03:59:44;9.40;99.90
4695;DHT22;2361;49.540;8.390;2023-02-03T04:02:14;9.40;99.90
4695;DHT22;2361;49.540;8.390;2023-02-03T04:04:44;9.40;99.90
4695;DHT22;2361;49.540;8.390;2023-02-03T04:07:12;9.40;99.90
4695;DHT22;2361;49.540;8.390;2023-02-03T04:09:40;9.30;99.90
4695;DHT22;2361;49.540;8.390;2023-02-03T04:12:22;9.30;99.90
4695;DHT22;2361;49.540;8.390;2023-02-03T04:14:50;9.30;99.90
4695;DHT22;2361;49.540;8.390;2023-02-03T04:17:16;9.30;99.90
4695;DHT22;2361;49.540;8.390;2023-02-03T04:19:47;9.30;99.90
4695;DHT22;2361;49.540;8.390;2023-02-03T04:22:14;9.30;99.90
4695;DHT22;2361;49.540;8.390;2023-02-03T04:24:41;9.30;99.90
4695;DHT22;2361;49.540;8.390;2023-02-03T04:27:08;9.30;99.90
4695;DHT22;2361;49.540;8.390;2023-02-03T04:29:34;9.30;99.90
4695;DHT22;2361;49.540;8.390;2023-02-03T04:32:01;9.30;99.90
4695;DHT22;2361;49.540;8.390;2023-02-03T04:34:28;9.30;99.90
4695;DHT22;2361;49.540;8.390;2023-02-03T04:36:56;9.30;99.90
4695;DHT22;2361;49.540;8.390;2023-02-03T04:39:22;9.30;99.90
4695;DHT22;2361;49.540;8.390;2023-02-03T04:41:49;9.30;99.90
4695;DHT22;2361;49.540;8.390;2023-02-03T04:44:16;9.40;99.90
4695;DHT22;2361;49.540;8.390;2023-02-03T04:46:43;9.40;99.90
4695;DHT22;2361;49.540;8.390;2023-02-03T04:49:10;9.40;99.90
4695;DHT22;2361;49.540;8.390;2023-02-03T04:51:37;9.40;99.90
4695;DHT22;2361;49.540;8.390;2023-02-03T04:54:04;9.40;99.90
4695;DHT22;2361;49.540;8.390;2023-02-03T04:56:31;9.40;99.90
4695;DHT22;2361;49.540;8.390;2023-02-03T04:58:58;9.30;99.90
4695;DHT22;2361;49.540;8.390;2023-02-03T05:01:25;9.40;99.90
4695;DHT22;2361;49.540;8.390;2023-02-03T05:03:52;9.40;99.90
4695;DHT22;2361;49.540;8.390;2023-02-03T05:06:27;9.40;99.90
4695;DHT22;2361;49.540;8.390;2023-02-03T05:08:54;9.30;99.90
4695;DHT22;2361;49.540;8.390;2023-02-03T05:11:21;9.30;99.90
4695;DHT22;2361;49.540;8.390;2023-02-03T05:13:48;9.40;99.90
4695;DHT22;2361;49.540;8.390;2023-02-03T05:16:16;9.40;99.90
4695;DHT22;2361;49.540;8.390;2023-02-03T05:18:43;9.50;99.90
4695;DHT22;2361;49.540;8.390;2023-02-03T05:21:10;9.40;99.90
4695;DHT22;2361;49.540;8.390;2023-02-03T05:23:37;9.50;99.90
4695;DHT22;2361;49.540;8.390;2023-02-03T05:26:04;9.50;99.90
4695;DHT22;2361;49.540;8.390;2023-02-03T05:28:31;9.50;99.90
4695;DHT22;2361;49.540;8.390;2023-02-03T05:30:59;9.40;99.90
4695;DHT22;2361;49.540;8.390;2023-02-03T05:33:27;9.40;99.90
4695;DHT22;2361;49.540;8.390;2023-02-03T05:35:55;9.40;99.90
4695;DHT22;2361;49.540;8.390;2023-02-03T05:38:22;9.40;99.90
4695;DHT22;2361;49.540;8.390;2023-02-03T05:40:51;9.40;99.90
4695;DHT22;2361;49.540;8.390;2023-02-03T05:43:37;9.40;99.90
4695;DHT22;2361;49.540;8.390;2023-02-03T05:46:05;9.40;99.90
4695;DHT22;2361;49.540;8.390;2023-02-03T05:48:33;9.50;99.90
4695;DHT22;2361;49.540;8.390;2023-02-03T05:51:00;9.50;99.90
4695;DHT22;2361;49.540;8.390;2023-02-03T05:53:27;9.50;99.90
4695;DHT22;2361;49.540;8.390;2023-02-03T05:55:54;9.50;99.90
4695;DHT22;2361;49.540;8.390;2023-02-03T05:58:21;9.50;99.90
4695;DHT22;2361;49.540;8.390;2023-02-03T06:00:48;9.40;99.90
4695;DHT22;2361;49.540;8.390;2023-02-03T06:03:15;9.40;99.90
4695;DHT22;2361;49.540;8.390;2023-02-03T06:05:42;9.40;99.90
4695;DHT22;2361;49.540;8.390;2023-02-03T06:08:10;9.40;99.90
4695;DHT22;2361;49.540;8.390;2023-02-03T06:10:37;9.40;99.90
4695;DHT22;2361;49.540;8.390;2023-02-03T06:13:12;9.40;99.90
4695;DHT22;2361;49.540;8.390;2023-02-03T06:15:40;9.40;99.90
4695;DHT22;2361;49.540;8.390;2023-02-03T06:18:08;9.40;99.90
4695;DHT22;2361;49.540;8.390;2023-02-03T06:20:35;9.50;99.90
4695;DHT22;2361;49.540;8.390;2023-02-03T06:23:02;9.40;99.90
4695;DHT22;2361;49.540;8.390;2023-02-03T06:25:29;9.40;99.90
4695;DHT22;2361;49.540;8.390;2023-02-03T06:27:58;9.40;99.90
4695;DHT22;2361;49.540;8.390;2023-02-03T06:30:25;9.40;99.90
4695;DHT22;2361;49.540;8.390;2023-02-03T06:32:53;9.40;99.90
4695;DHT22;2361;49.540;8.390;2023-02-03T06:35:20;9.40;99.90
4695;DHT22;2361;49.540;8.390;2023-02-03T06:37:47;9.40;99.90
4695;DHT22;2361;49.540;8.390;2023-02-03T06:40:14;9.40;99.90
4695;DHT22;2361;49.540;8.390;2023-02-03T06:42:45;9.40;99.90
4695;DHT22;2361;49.540;8.390;2023-02-03T06:45:13;9.40;99.90
4695;DHT22;2361;49.540;8.390;2023-02-03T06:47:41;9.40;99.90
4695;DHT22;2361;49.540;8.390;2023-02-03T06:50:12;9.30;99.90
4695;DHT22;2361;49.540;8.390;2023-02-03T06:52:41;9.40;99.90
4695;DHT22;2361;49.540;8.390;2023-02-03T06:55:08;9.30;99.90
4695;DHT22;2361;49.540;8.390;2023-02-03T06:57:42;9.30;99.90
4695;DHT22;2361;49.540;8.390;2023-02-03T07:00:16;9.30;99.90
4695;DHT22;2361;49.540;8.390;2023-02-03T07:02:45;9.30;99.90
4695;DHT22;2361;49.540;8.390;2023-02-03T07:05:12;9.30;99.90
4695;DHT22;2361;49.540;8.390;2023-02-03T07:07:39;9.30;99.90
4695;DHT22;2361;49.540;8.390;2023-02-03T07:10:06;9.30;99.90
4695;DHT22;2361;49.540;8.390;2023-02-03T07:12:34;9.30;99.90
4695;DHT22;2361;49.540;8.390;2023-02-03T07:15:03;9.30;99.90
4695;DHT22;2361;49.540;8.390;2023-02-03T07:17:30;9.30;99.90
4695;DHT22;2361;49.540;8.390;2023-02-03T07:19:57;9.30;99.90
4695;DHT22;2361;49.540;8.390;2023-02-03T07:22:25;9.30;99.90
4695;DHT22;2361;49.540;8.390;2023-02-03T07:24:51;9.30;99.90
4695;DHT22;2361;49.540;8.390;2023-02-03T07:27:18;9.20;99.90
4695;DHT22;2361;49.540;8.390;2023-02-03T07:29:45;9.20;99.90
4695;DHT22;2361;49.540;8.390;2023-02-03T07:32:12;9.20;99.90
4695;DHT22;2361;49.540;8.390;2023-02-03T07:34:39;9.30;99.90
4695;DHT22;2361;49.540;8.390;2023-02-03T07:37:06;9.30;99.90
4695;DHT22;2361;49.540;8.390;2023-02-03T07:39:33;9.30;99.90
4695;DHT22;2361;49.540;8.390;2023-02-03T07:42:00;9.30;99.90
4695;DHT22;2361;49.540;8.390;2023-02-03T07:44:27;9.30;99.90
4695;DHT22;2361;49.540;8.390;2023-02-03T07:46:54;9.30;99.90
4695;DHT22;2361;49.540;8.390;2023-02-03T07:49:21;9.40;99.90
4695;DHT22;2361;49.540;8.390;2023-02-03T07:51:48;9.40;99.90
4695;DHT22;2361;49.540;8.390;2023-02-03T07:54:15;9.50;99.90
4695;DHT22;2361;49.540;8.390;2023-02-03T07:56:42;9.50;99.90
4695;DHT22;2361;49.540;8.390;2023-02-03T07:59:09;9.50;99.90
4695;DHT22;2361;49.540;8.390;2023-02-03T08:01:36;9.50;99.90
4695;DHT22;2361;49.540;8.390;2023-02-03T08:04:03;9.50;99.90
4695;DHT22;2361;49.540;8.390;2023-02-03T08:06:31;9.50;99.90
4695;DHT22;2361;49.540;8.390;2023-02-03T08:08:58;9.50;99.90
4695;DHT22;2361;49.540;8.390;2023-02-03T08:11:25;9.50;99.90
4695;DHT22;2361;49.540;8.390;2023-02-03T08:13:52;9.60;99.90
4695;DHT22;2361;49.540;8.390;2023-02-03T08:16:19;9.60;99.90
4695;DHT22;2361;49.540;8.390;2023-02-03T08:18:47;9.60;99.90
4695;DHT22;2361;49.540;8.390;2023-02-03T08:21:20;9.70;99.90
4695;DHT22;2361;49.540;8.390;2023-02-03T08:23:47;9.70;99.90
4695;DHT22;2361;49.540;8.390;2023-02-03T08:26:14;9.70;99.90
4695;DHT22;2361;49.540;8.390;2023-02-03T08:28:42;9.70;99.90
4695;DHT22;2361;49.540;8.390;2023-02-03T08:31:10;9.70;99.90
4695;DHT22;2361;49.540;8.390;2023-02-03T08:33:38;9.70;99.90
4695;DHT22;2361;49.540;8.390;2023-02-03T08:36:05;9.80;99.90
4695;DHT22;2361;49.540;8.390;2023-02-03T08:38:32;9.80;99.90
4695;DHT22;2361;49.540;8.390;2023-02-03T08:41:00;9.80;99.90
4695;DHT22;2361;49.540;8.390;2023-02-03T08:43:27;9.80;99.90
4695;DHT22;2361;49.540;8.390;2023-02-03T08:45:53;9.80;99.90
4695;DHT22;2361;49.540;8.390;2023-02-03T08:48:20;9.90;99.90
4695;DHT22;2361;49.540;8.390;2023-02-03T08:50:47;9.90;99.90
4695;DHT22;2361;49.540;8.390;2023-02-03T08:53:18;9.90;99.90
4695;DHT22;2361;49.540;8.390;2023-02-03T08:55:45;9.80;99.90
4695;DHT22;2361;49.540;8.390;2023-02-03T08:58:13;9.90;99.90
4695;DHT22;2361;49.540;8.390;2023-02-03T09:00:40;9.90;99.90
4695;DHT22;2361;49.540;8.390;2023-02-03T09:03:08;9.90;99.90
4695;DHT22;2361;49.540;8.390;2023-02-03T09:05:35;10.00;99.90
4695;DHT22;2361;49.540;8.390;2023-02-03T09:08:02;9.90;99.90
4695;DHT22;2361;49.540;8.390;2023-02-03T09:10:29;10.00;99.90
4695;DHT22;2361;49.540;8.390;2023-02-03T09:12:56;10.00;99.90
4695;DHT22;2361;49.540;8.390;2023-02-03T09:15:23;10.00;99.90
4695;DHT22;2361;49.540;8.390;2023-02-03T09:17:50;10.00;99.90
4695;DHT22;2361;49.540;8.390;2023-02-03T09:20:17;10.00;99.90
4695;DHT22;2361;49.540;8.390;2023-02-03T09:22:44;10.10;99.90
4695;DHT22;2361;49.540;8.390;2023-02-03T09:25:11;10.00;99.90
4695;DHT22;2361;49.540;8.390;2023-02-03T09:27:39;10.10;99.90
4695;DHT22;2361;49.540;8.390;2023-02-03T09:30:06;10.20;99.90
4695;DHT22;2361;49.540;8.390;2023-02-03T09:32:33;10.10;99.90
4695;DHT22;2361;49.540;8.390;2023-02-03T09:35:00;10.20;99.90
4695;DHT22;2361;49.540;8.390;2023-02-03T09:37:30;10.20;99.90
4695;DHT22;2361;49.540;8.390;2023-02-03T09:39:57;10.20;99.90
4695;DHT22;2361;49.540;8.390;2023-02-03T09:42:51;10.30;99.90
4695;DHT22;2361;49.540;8.390;2023-02-03T09:45:28;10.30;99.90
4695;DHT22;2361;49.540;8.390;2023-02-03T09:48:02;10.40;99.90
4695;DHT22;2361;49.540;8.390;2023-02-03T09:50:45;10.50;99.90
4695;DHT22;2361;49.540;8.390;2023-02-03T09:53:35;10.50;99.90
4695;DHT22;2361;49.540;8.390;2023-02-03T09:56:31;10.60;99.90
4695;DHT22;2361;49.540;8.390;2023-02-03T09:59:00;10.70;99.90
4695;DHT22;2361;49.540;8.390;2023-02-03T10:01:37;10.80;99.90
4695;DHT22;2361;49.540;8.390;2023-02-03T10:04:47;10.80;99.90
4695;DHT22;2361;49.540;8.390;2023-02-03T10:07:41;10.80;99.90
4695;DHT22;2361;49.540;8.390;2023-02-03T10:10:36;10.80;99.90
4695;DHT22;2361;49.540;8.390;2023-02-03T10:13:12;10.80;99.90
4695;DHT22;2361;49.540;8.390;2023-02-03T10:18:44;10.90;99.90
4695;DHT22;2361;49.540;8.390;2023-02-03T10:21:38;10.90;99.90
4695;DHT22;2361;49.540;8.390;2023-02-03T10:24:29;10.90;99.90
4695;DHT22;2361;49.540;8.390;2023-02-03T10:27:01;10.90;99.90
4695;DHT22;2361;49.540;8.390;2023-02-03T10:29:40;10.90;99.90
4695;DHT22;2361;49.540;8.390;2023-02-03T10:32:11;11.00;99.90
4695;DHT22;2361;49.540;8.390;2023-02-03T10:34:42;11.00;99.90
4695;DHT22;2361;49.540;8.390;2023-02-03T10:40:24;10.80;99.90
4695;DHT22;2361;49.540;8.390;2023-02-03T10:42:52;10.80;99.90
4695;DHT22;2361;49.540;8.390;2023-02-03T10:45:38;10.70;99.90
4695;DHT22;2361;49.540;8.390;2023-02-03T10:48:11;10.70;99.90
4695;DHT22;2361;49.540;8.390;2023-02-03T10:50:47;10.70;99.90
4695;DHT22;2361;49.540;8.390;2023-02-03T10:53:24;10.60;99.90
4695;DHT22;2361;49.540;8.390;2023-02-03T10:56:04;10.60;99.90
4695;DHT22;2361;49.540;8.390;2023-02-03T10:58:33;10.60;99.90
4695;DHT22;2361;49.540;8.390;2023-02-03T11:01:15;10.60;99.90
4695;DHT22;2361;49.540;8.390;2023-02-03T11:03:56;10.60;99.90
4695;DHT22;2361;49.540;8.390;2023-02-03T11:06:32;10.60;99.90
4695;DHT22;2361;49.540;8.390;2023-02-03T11:08:59;10.60;99.90
4695;DHT22;2361;49.540;8.390;2023-02-03T11:11:28;10.60;99.90
4695;DHT22;2361;49.540;8.390;2023-02-03T11:16:32;10.60;99.90
4695;DHT22;2361;49.540;8.390;2023-02-03T11:19:06;10.60;99.90
4695;DHT22;2361;49.540;8.390;2023-02-03T11:21:40;10.60;99.90
4695;DHT22;2361;49.540;8.390;2023-02-03T11:24:19;10.60;99.90
4695;DHT22;2361;49.540;8.390;2023-02-03T11:26:57;10.70;99.90
4695;DHT22;2361;49.540;8.390;2023-02-03T11:29:30;10.70;99.90
4695;DHT22;2361;49.540;8.390;2023-02-03T11:32:42;10.70;99.90
4695;DHT22;2361;49.540;8.390;2023-02-03T11:35:25;10.70;99.90
4695;DHT22;2361;49.540;8.390;2023-02-03T11:37:58;10.80;99.90
4695;DHT22;2361;49.540;8.390;2023-02-03T11:40:32;10.70;99.90
4695;DHT22;2361;49.540;8.390;2023-02-03T11:43:16;10.70;99.90
4695;DHT22;2361;49.540;8.390;2023-02-03T11:45:49;10.70;99.90
4695;DHT22;2361;49.540;8.390;2023-02-03T11:48:26;10.70;99.90
4695;DHT22;2361;49.540;8.390;2023-02-03T11:51:11;10.60;99.90
4695;DHT22;2361;49.540;8.390;2023-02-03T11:53:58;10.70;99.90
4695;DHT22;2361;49.540;8.390;2023-02-03T12:05:46;10.60;99.90
4695;DHT22;2361;49.540;8.390;2023-02-03T12:11:26;10.60;99.90
4695;DHT22;2361;49.540;8.390;2023-02-03T12:26:02;10.50;99.90
4695;DHT22;2361;49.540;8.390;2023-02-03T12:28:57;10.60;99.90
4695;DHT22;2361;49.540;8.390;2023-02-03T12:31:55;10.60;99.90
4695;DHT22;2361;49.540;8.390;2023-02-03T12:34:52;10.70;99.90
4695;DHT22;2361;49.540;8.390;2023-02-03T12:37:25;10.80;99.90
4695;DHT22;2361;49.540;8.390;2023-02-03T12:40:01;10.90;99.90
4695;DHT22;2361;49.540;8.390;2023-02-03T12:45:17;11.00;99.90
4695;DHT22;2361;49.540;8.390;2023-02-03T12:48:01;11.00;99.90
4695;DHT22;2361;49.540;8.390;2023-02-03T12:50:39;11.10;99.90
4695;DHT22;2361;49.540;8.390;2023-02-03T12:53:23;11.00;99.90
4695;DHT22;2361;49.540;8.390;2023-02-03T12:56:11;11.00;99.90
4695;DHT22;2361;49.540;8.390;2023-02-03T12:58:46;11.00;99.90
4695;DHT22;2361;49.540;8.390;2023-02-03T13:01:31;11.00;99.90
4695;DHT22;2361;49.540;8.390;2023-02-03T13:07:16;11.10;99.90
4695;DHT22;2361;49.540;8.390;2023-02-03T13:09:48;11.20;99.90
4695;DHT22;2361;49.540;8.390;2023-02-03T13:12:40;11.20;99.90
4695;DHT22;2361;49.540;8.390;2023-02-03T13:18:14;11.30;99.90
4695;DHT22;2361;49.540;8.390;2023-02-03T13:20:47;11.30;99.90
4695;DHT22;2361;49.540;8.390;2023-02-03T13:23:14;11.30;99.90
4695;DHT22;2361;49.540;8.390;2023-02-03T13:43:32;10.80;99.90
4695;DHT22;2361;49.540;8.390;2023-02-03T13:46:07;10.80;99.90
4695;DHT22;2361;49.540;8.390;2023-02-03T13:48:36;10.80;99.90
4695;DHT22;2361;49.540;8.390;2023-02-03T13:51:13;10.80;99.90
4695;DHT22;2361;49.540;8.390;2023-02-03T13:53:43;10.80;99.90
4695;DHT22;2361;49.540;8.390;2023-02-03T13:56:20;10.80;99.90
4695;DHT22;2361;49.540;8.390;2023-02-03T14:01:40;10.80;99.90
4695;DHT22;2361;49.540;8.390;2023-02-03T14:06:57;10.80;99.90
4695;DHT22;2361;49.540;8.390;2023-02-03T14:14:58;10.70;99.90
4695;DHT22;2361;49.540;8.390;2023-02-03T14:20:01;10.60;99.90
4695;DHT22;2361;49.540;8.390;2023-02-03T14:22:30;10.60;99.90
4695;DHT22;2361;49.540;8.390;2023-02-03T14:25:03;10.60;99.90
4695;DHT22;2361;49.540;8.390;2023-02-03T14:27:31;10.60;99.90
4695;DHT22;2361;49.540;8.390;2023-02-03T14:30:11;10.70;99.90
4695;DHT22;2361;49.540;8.390;2023-02-03T14:35:18;10.60;99.90
4695;DHT22;2361;49.540;8.390;2023-02-03T14:38:04;10.70;99.90
4695;DHT22;2361;49.540;8.390;2023-02-03T14:40:55;10.70;99.90
4695;DHT22;2361;49.540;8.390;2023-02-03T14:52:17;10.80;99.90
4695;DHT22;2361;49.540;8.390;2023-02-03T14:55:34;10.80;99.90
4695;DHT22;2361;49.540;8.390;2023-02-03T14:58:20;10.70;99.90
4695;DHT22;2361;49.540;8.390;2023-02-03T15:00:48;10.70;99.90
4695;DHT22;2361;49.540;8.390;2023-02-03T15:03:19;10.60;99.90
4695;DHT22;2361;49.540;8.390;2023-02-03T15:05:54;10.70;99.90
4695;DHT22;2361;49.540;8.390;2023-02-03T15:08:46;10.60;99.90
4695;DHT22;2361;49.540;8.390;2023-02-03T15:11:31;10.60;99.90
4695;DHT22;2361;49.540;8.390;2023-02-03T15:14:19;10.60;99.90
4695;DHT22;2361;49.540;8.390;2023-02-03T15:16:59;10.60;99.90
4695;DHT22;2361;49.540;8.390;2023-02-03T15:19:32;10.50;99.90
4695;DHT22;2361;49.540;8.390;2023-02-03T15:22:01;10.50;99.90
4695;DHT22;2361;49.540;8.390;2023-02-03T15:24:35;10.50;99.90
4695;DHT22;2361;49.540;8.390;2023-02-03T15:27:02;10.50;99.90
4695;DHT22;2361;49.540;8.390;2023-02-03T15:29:33;10.50;99.90
4695;DHT22;2361;49.540;8.390;2023-02-03T15:32:07;10.50;99.90
4695;DHT22;2361;49.540;8.390;2023-02-03T15:34:47;10.50;99.90
4695;DHT22;2361;49.540;8.390;2023-02-03T15:42:28;10.50;99.90
4695;DHT22;2361;49.540;8.390;2023-02-03T15:47:58;10.40;99.90
4695;DHT22;2361;49.540;8.390;2023-02-03T15:50:59;10.40;99.90
4695;DHT22;2361;49.540;8.390;2023-02-03T15:53:33;10.40;99.90
4695;DHT22;2361;49.540;8.390;2023-02-03T15:56:47;10.40;99.90
4695;DHT22;2361;49.540;8.390;2023-02-03T16:02:18;10.40;99.90
4695;DHT22;2361;49.540;8.390;2023-02-03T16:08:37;10.30;99.90
4695;DHT22;2361;49.540;8.390;2023-02-03T16:13:51;10.30;99.90
4695;DHT22;2361;49.540;8.390;2023-02-03T16:18:53;10.20;99.90
4695;DHT22;2361;49.540;8.390;2023-02-03T16:24:04;10.30;99.90
4695;DHT22;2361;49.540;8.390;2023-02-03T16:26:32;10.30;99.90
4695;DHT22;2361;49.540;8.390;2023-02-03T16:29:09;10.20;99.90
4695;DHT22;2361;49.540;8.390;2023-02-03T16:31:56;10.30;99.90
4695;DHT22;2361;49.540;8.390;2023-02-03T16:34:42;10.30;99.90
4695;DHT22;2361;49.540;8.390;2023-02-03T16:37:30;10.40;99.90
4695;DHT22;2361;49.540;8.390;2023-02-03T16:40:26;10.40;99.90
4695;DHT22;2361;49.540;8.390;2023-02-03T16:43:13;10.30;99.90
4695;DHT22;2361;49.540;8.390;2023-02-03T16:46:00;10.30;99.90
4695;DHT22;2361;49.540;8.390;2023-02-03T16:48:46;10.30;99.90
4695;DHT22;2361;49.540;8.390;2023-02-03T16:51:38;10.30;99.90
4695;DHT22;2361;49.540;8.390;2023-02-03T16:54:10;10.40;99.90
4695;DHT22;2361;49.540;8.390;2023-02-03T16:56:39;10.40;99.90
4695;DHT22;2361;49.540;8.390;2023-02-03T16:59:06;10.40;99.90
4695;DHT22;2361;49.540;8.390;2023-02-03T17:01:33;10.40;99.90
4695;DHT22;2361;49.540;8.390;2023-02-03T17:04:01;10.40;99.90
4695;DHT22;2361;49.540;8.390;2023-02-03T17:06:28;10.30;99.90
4695;DHT22;2361;49.540;8.390;2023-02-03T17:08:55;10.30;99.90
4695;DHT22;2361;49.540;8.390;2023-02-03T17:11:24;10.30;99.90
4695;DHT22;2361;49.540;8.390;2023-02-03T17:13:52;10.30;99.90
4695;DHT22;2361;49.540;8.390;2023-02-03T17:16:21;10.30;99.90
4695;DHT22;2361;49.540;8.390;2023-02-03T17:18:50;10.20;99.90
4695;DHT22;2361;49.540;8.390;2023-02-03T17:21:23;10.20;99.90
4695;DHT22;2361;49.540;8.390;2023-02-03T17:23:51;10.20;99.90
4695;DHT22;2361;49.540;8.390;2023-02-03T17:26:18;10.10;99.90
4695;DHT22;2361;49.540;8.390;2023-02-03T17:28:45;10.10;99.90
4695;DHT22;2361;49.540;8.390;2023-02-03T17:31:17;10.00;99.90
4695;DHT22;2361;49.540;8.390;2023-02-03T17:33:48;10.00;99.90
4695;DHT22;2361;49.540;8.390;2023-02-03T17:36:18;10.00;99.90
4695;DHT22;2361;49.540;8.390;2023-02-03T17:38:53;9.90;99.90
4695;DHT22;2361;49.540;8.390;2023-02-03T17:41:39;9.90;99.90
4695;DHT22;2361;49.540;8.390;2023-02-03T17:44:24;9.90;99.90
4695;DHT22;2361;49.540;8.390;2023-02-03T17:47:09;9.90;99.90
4695;DHT22;2361;49.540;8.390;2023-02-03T17:49:53;9.90;99.90
4695;DHT22;2361;49.540;8.390;2023-02-03T17:52:38;9.90;99.90
4695;DHT22;2361;49.540;8.390;2023-02-03T17:55:22;9.90;99.90
4695;DHT22;2361;49.540;8.390;2023-02-03T17:57:49;9.80;99.90
4695;DHT22;2361;49.540;8.390;2023-02-03T18:00:16;9.80;99.90
4695;DHT22;2361;49.540;8.390;2023-02-03T18:02:48;9.80;99.90
4695;DHT22;2361;49.540;8.390;2023-02-03T18:05:18;9.80;99.90
4695;DHT22;2361;49.540;8.390;2023-02-03T18:07:45;9.80;99.90
4695;DHT22;2361;49.540;8.390;2023-02-03T18:10:17;9.80;99.90
4695;DHT22;2361;49.540;8.390;2023-02-03T18:12:44;9.80;99.90
4695;DHT22;2361;49.540;8.390;2023-02-03T18:15:11;9.80;99.90
4695;DHT22;2361;49.540;8.390;2023-02-03T18:17:38;9.80;99.90
4695;DHT22;2361;49.540;8.390;2023-02-03T18:20:05;9.90;99.90
4695;DHT22;2361;49.540;8.390;2023-02-03T18:22:32;9.90;99.90
4695;DHT22;2361;49.540;8.390;2023-02-03T18:25:00;10.00;99.90
4695;DHT22;2361;49.540;8.390;2023-02-03T18:27:27;9.90;99.90
4695;DHT22;2361;49.540;8.390;2023-02-03T18:29:53;9.90;99.90
4695;DHT22;2361;49.540;8.390;2023-02-03T18:32:20;9.90;99.90
4695;DHT22;2361;49.540;8.390;2023-02-03T18:34:47;9.90;99.90
4695;DHT22;2361;49.540;8.390;2023-02-03T18:37:14;9.90;99.90
4695;DHT22;2361;49.540;8.390;2023-02-03T18:39:41;10.00;99.90
4695;DHT22;2361;49.540;8.390;2023-02-03T18:42:08;10.00;99.90
4695;DHT22;2361;49.540;8.390;2023-02-03T18:44:35;10.00;99.90
4695;DHT22;2361;49.540;8.390;2023-02-03T18:47:02;10.00;99.90
4695;DHT22;2361;49.540;8.390;2023-02-03T18:49:34;10.10;99.90
4695;DHT22;2361;49.540;8.390;2023-02-03T18:52:02;10.10;99.90
4695;DHT22;2361;49.540;8.390;2023-02-03T18:54:30;10.00;99.90
4695;DHT22;2361;49.540;8.390;2023-02-03T18:56:57;10.00;99.90
4695;DHT22;2361;49.540;8.390;2023-02-03T18:59:24;10.00;99.90